createdAt,value
2022-12-18T00:03:38.067Z,101842.44
2022-12-18T00:08:32.800Z,101873.78
2022-12-18T00:13:26.319Z,101874.78
2022-12-18T00:18:21.862Z,101853.50
2022-12-18T00:23:15.266Z,101902.06
2022-12-18T00:28:08.788Z,101888.13
2022-12-18T00:33:02.638Z,101881.28
2022-12-18T00:37:56.341Z,101902.44
2022-12-18T00:42:58.707Z,101886.56
2022-12-18T00:47:51.325Z,101921.38
2022-12-18T00:52:45.057Z,101895.34
2022-12-18T00:57:38.072Z,101885.81
2022-12-18T01:02:32.117Z,101893.88
2022-12-18T01:07:24.933Z,101898.16
2022-12-18T01:12:18.205Z,101916.44
2022-12-18T01:17:11.154Z,101890.25
2022-12-18T01:22:04.733Z,101892.66
2022-12-18T01:26:58.649Z,101906.47
2022-12-18T01:31:51.166Z,101899.84
2022-12-18T01:36:45.759Z,101928.69
2022-12-18T01:41:58.566Z,101927.78
2022-12-18T01:46:52.743Z,101933.25
2022-12-18T01:51:46.667Z,101942.13
2022-12-18T01:56:40.040Z,101934.25
2022-12-18T02:01:34.478Z,101932.81
2022-12-18T02:06:39.526Z,101959.88
2022-12-18T02:11:48.214Z,101970.34
2022-12-18T02:16:57.905Z,101971.34
2022-12-18T02:21:58.883Z,101979.22
2022-12-18T02:26:55.366Z,101966.34
2022-12-18T02:31:56.643Z,101992.44
2022-12-18T02:36:53.383Z,101988.44
2022-12-18T02:41:47.056Z,102000.59
2022-12-18T02:46:48.234Z,101992.94
2022-12-18T02:52:02.558Z,102018.13
2022-12-18T02:57:05.610Z,102014.66
2022-12-18T03:02:26.318Z,101997.28
2022-12-18T03:07:27.159Z,102017.19
2022-12-18T03:12:41.435Z,102000.03
2022-12-18T03:17:36.804Z,101990.66
2022-12-18T03:22:33.426Z,102004.41
2022-12-18T03:27:34.727Z,102024.34
2022-12-18T03:32:34.819Z,102027.81
2022-12-18T03:38:07.929Z,102026.09
2022-12-18T03:43:40.755Z,102031.47
2022-12-18T03:48:43.320Z,102016.13
2022-12-18T03:53:45.030Z,102037.47
2022-12-18T03:58:59.497Z,102049.00
2022-12-18T04:03:56.462Z,102047.38
2022-12-18T04:08:50.662Z,102040.44
2022-12-18T04:13:47.814Z,102051.06
2022-12-18T04:18:46.442Z,102084.41
2022-12-18T04:23:41.716Z,102096.81
2022-12-18T04:28:35.892Z,102089.84
2022-12-18T04:33:30.041Z,102121.31
2022-12-18T04:38:24.443Z,102119.63
2022-12-18T04:43:25.348Z,102120.47
2022-12-18T04:48:19.189Z,102127.50
2022-12-18T04:53:12.498Z,102132.06
2022-12-18T04:58:05.791Z,102137.28
2022-12-18T05:02:59.794Z,102146.13
2022-12-18T05:07:53.472Z,102120.00
2022-12-18T05:13:01.606Z,102145.31
2022-12-18T05:17:56.039Z,102141.13
2022-12-18T05:22:50.103Z,102149.16
2022-12-18T05:27:43.204Z,102155.19
2022-12-18T05:32:35.928Z,102185.06
2022-12-18T05:37:29.980Z,102178.88
2022-12-18T05:42:22.706Z,102162.47
2022-12-18T05:47:15.526Z,102187.75
2022-12-18T05:52:08.190Z,102186.19
2022-12-18T05:57:01.703Z,102206.25
2022-12-18T06:01:54.760Z,102189.13
2022-12-18T06:06:49.126Z,102207.38
2022-12-18T06:11:42.567Z,102207.22
2022-12-18T06:16:35.341Z,102213.47
2022-12-18T06:21:29.355Z,102229.88
2022-12-18T06:26:27.841Z,102248.34
2022-12-18T06:31:22.101Z,102228.41
2022-12-18T06:36:17.223Z,102210.16
2022-12-18T06:41:15.373Z,102256.47
2022-12-18T06:46:08.482Z,102267.25
2022-12-18T06:51:02.046Z,102287.19
2022-12-18T06:55:54.165Z,102284.63
2022-12-18T07:00:49.440Z,102290.63
2022-12-18T07:05:42.453Z,102298.78
2022-12-18T07:10:46.289Z,102307.16
2022-12-18T07:15:41.853Z,102292.75
2022-12-18T07:20:36.338Z,102280.25
2022-12-18T07:25:29.906Z,102326.69
2022-12-18T07:30:24.050Z,102313.06
2022-12-18T07:35:23.357Z,102325.19
2022-12-18T07:40:18.150Z,102300.28
2022-12-18T07:45:12.098Z,102340.97
2022-12-18T07:50:05.799Z,102335.06
2022-12-18T07:55:00.173Z,102338.34
2022-12-18T07:59:52.904Z,102334.69
2022-12-18T08:04:48.481Z,102340.06
2022-12-18T08:09:43.055Z,102363.63
2022-12-18T08:14:36.282Z,102374.13
2022-12-18T08:19:29.822Z,102394.34
2022-12-18T08:24:23.446Z,102407.53
2022-12-18T08:29:21.445Z,102417.06
2022-12-18T08:34:15.046Z,102425.84
2022-12-18T08:39:09.316Z,102438.19
2022-12-18T08:44:22.027Z,102439.91
2022-12-18T08:49:15.723Z,102431.28
2022-12-18T08:54:08.733Z,102426.91
2022-12-18T08:59:01.831Z,102421.06
2022-12-18T09:03:54.628Z,102460.91
2022-12-18T09:08:47.050Z,102451.44
2022-12-18T09:13:41.911Z,102460.16
2022-12-18T09:18:37.222Z,102480.28
2022-12-18T09:23:30.625Z,102482.09
2022-12-18T09:28:24.242Z,102457.63
2022-12-18T09:33:18.539Z,102481.97
2022-12-18T09:38:14.401Z,102462.03
2022-12-18T09:43:11.848Z,102478.75
2022-12-18T09:48:06.746Z,102478.53
2022-12-18T09:53:07.657Z,102472.28
2022-12-18T09:58:16.124Z,102475.91
2022-12-18T10:03:14.792Z,102457.50
2022-12-18T10:08:33.377Z,102445.00
2022-12-18T10:13:31.297Z,102450.91
2022-12-18T10:18:53.519Z,102448.22
2022-12-18T10:24:30.241Z,102440.31
2022-12-18T10:29:23.896Z,102434.09
2022-12-18T10:34:16.614Z,102421.00
2022-12-18T10:39:35.869Z,102444.59
2022-12-18T10:44:29.547Z,102439.19
2022-12-18T10:49:28.910Z,102420.84
2022-12-18T10:54:27.098Z,102439.91
2022-12-18T10:59:20.534Z,102435.56
2022-12-18T11:04:19.702Z,102429.56
2022-12-18T11:09:24.677Z,102413.03
2022-12-18T11:14:46.924Z,102430.41
2022-12-18T11:19:42.653Z,102445.81
2022-12-18T11:24:37.317Z,102434.69
2022-12-18T11:29:33.257Z,102439.69
2022-12-18T11:34:33.319Z,102425.78
2022-12-18T11:40:05.091Z,102434.28
2022-12-18T11:45:12.999Z,102450.25
2022-12-18T11:50:34.172Z,102415.31
2022-12-18T11:55:51.909Z,102425.44
2022-12-18T12:00:52.659Z,102413.91
2022-12-18T12:06:09.511Z,102415.56
2022-12-18T12:11:04.922Z,102422.53
2022-12-18T12:16:13.762Z,102425.91
2022-12-18T12:21:24.288Z,102384.91
2022-12-18T12:26:29.862Z,102428.66
2022-12-18T12:31:40.321Z,102420.88
2022-12-18T12:37:04.042Z,102403.56
2022-12-18T12:42:15.823Z,102425.28
2022-12-18T12:47:31.743Z,102430.06
2022-12-18T12:53:03.842Z,102418.78
2022-12-18T12:58:16.546Z,102419.78
2022-12-18T13:03:17.146Z,102409.34
2022-12-18T13:08:33.246Z,102417.94
2022-12-18T13:13:52.311Z,102422.41
2022-12-18T13:18:51.972Z,102417.06
2022-12-18T13:23:46.259Z,102395.41
2022-12-18T13:28:49.120Z,102419.56
2022-12-18T13:34:24.016Z,102383.56
2022-12-18T13:39:21.223Z,102406.03
2022-12-18T13:44:50.325Z,102398.19
2022-12-18T13:49:45.681Z,102382.00
2022-12-18T13:54:42.122Z,102401.88
2022-12-18T13:59:40.391Z,102378.53
2022-12-18T14:04:37.994Z,102384.56
2022-12-18T14:09:32.564Z,102400.84
2022-12-18T14:14:32.378Z,102410.59
2022-12-18T14:19:27.031Z,102426.44
2022-12-18T14:24:23.463Z,102410.63
2022-12-18T14:29:28.109Z,102398.75
2022-12-18T14:34:27.726Z,102391.78
2022-12-18T14:39:20.329Z,102416.38
2022-12-18T14:44:15.326Z,102418.78
2022-12-18T14:49:28.394Z,102414.25
2022-12-18T14:54:22.169Z,102409.81
2022-12-18T14:59:24.093Z,102419.47
2022-12-18T15:04:36.521Z,102413.41
2022-12-18T15:09:30.106Z,102398.66
2022-12-18T15:14:38.560Z,102403.91
2022-12-18T15:19:39.631Z,102410.03
2022-12-18T15:24:34.374Z,102426.53
2022-12-18T15:29:28.084Z,102405.09
2022-12-18T15:34:24.360Z,102442.50
2022-12-18T15:39:17.845Z,102451.72
2022-12-18T15:44:37.651Z,102455.19
2022-12-18T15:49:31.202Z,102435.91
2022-12-18T15:54:44.361Z,102438.38
2022-12-18T15:59:37.709Z,102447.00
2022-12-18T16:04:31.625Z,102452.88
2022-12-18T16:09:26.652Z,102470.38
2022-12-18T16:14:23.431Z,102478.19
2022-12-18T16:19:17.256Z,102463.53
2022-12-18T16:24:21.013Z,102464.34
2022-12-18T16:29:14.929Z,102460.34
2022-12-18T16:34:35.223Z,102482.66
2022-12-18T16:39:28.825Z,102486.97
2022-12-18T16:44:22.054Z,102482.88
2022-12-18T16:49:20.674Z,102493.13
2022-12-18T16:54:18.867Z,102476.63
2022-12-18T16:59:13.428Z,102494.84
2022-12-18T17:04:07.227Z,102478.28
2022-12-18T17:09:03.464Z,102505.31
2022-12-18T17:13:55.983Z,102505.47
2022-12-18T17:18:51.090Z,102467.16
2022-12-18T17:23:46.148Z,102499.81
2022-12-18T17:28:40.146Z,102480.25
2022-12-18T17:33:33.383Z,102498.91
2022-12-18T17:38:26.581Z,102495.53
2022-12-18T17:43:20.907Z,102509.50
2022-12-18T17:48:16.806Z,102513.16
2022-12-18T17:53:11.078Z,102521.41
2022-12-18T17:58:05.518Z,102487.56
2022-12-18T18:02:59.430Z,102527.19
2022-12-18T18:07:52.650Z,102525.03
2022-12-18T18:13:04.567Z,102527.00
2022-12-18T18:17:58.374Z,102540.38
2022-12-18T18:22:51.972Z,102551.25
2022-12-18T18:27:46.117Z,102512.66
2022-12-18T18:32:42.260Z,102530.47
2022-12-18T18:37:36.716Z,102543.22
2022-12-18T18:42:29.691Z,102544.25
2022-12-18T18:47:22.326Z,102545.88
2022-12-18T18:52:14.791Z,102515.25
2022-12-18T18:57:20.445Z,102513.00
2022-12-18T19:02:15.496Z,102531.22
2022-12-18T19:07:09.577Z,102533.94
2022-12-18T19:12:21.283Z,102506.88
2022-12-18T19:17:15.762Z,102528.25
2022-12-18T19:22:11.122Z,102507.91
2022-12-18T19:27:04.449Z,102540.25
2022-12-18T19:31:57.646Z,102547.03
2022-12-18T19:36:56.482Z,102532.19
2022-12-18T19:41:52.572Z,102549.44
2022-12-18T19:46:47.072Z,102530.84
2022-12-18T19:51:45.588Z,102538.69
2022-12-18T19:56:38.239Z,102515.06
2022-12-18T20:01:31.436Z,102540.31
2022-12-18T20:06:36.547Z,102552.59
2022-12-18T20:11:30.730Z,102548.06
2022-12-18T20:16:23.748Z,102556.97
2022-12-18T20:21:17.205Z,102564.88
2022-12-18T20:26:10.601Z,102549.31
2022-12-18T20:31:13.225Z,102564.88
2022-12-18T20:36:15.289Z,102559.78
2022-12-18T20:41:12.081Z,102562.38
2022-12-18T20:46:08.087Z,102574.59
2022-12-18T20:51:02.619Z,102604.34
2022-12-18T20:55:58.024Z,102599.88
2022-12-18T21:00:51.297Z,102591.94
2022-12-18T21:05:44.814Z,102588.50
2022-12-18T21:10:39.206Z,102594.41
2022-12-18T21:15:33.139Z,102599.63
2022-12-18T21:20:26.569Z,102616.47
2022-12-18T21:25:19.534Z,102600.47
2022-12-18T21:30:15.351Z,102601.47
2022-12-18T21:35:09.694Z,102589.34
2022-12-18T21:40:02.643Z,102606.63
2022-12-18T21:44:56.775Z,102584.34
2022-12-18T21:49:50.866Z,102581.06
2022-12-18T21:54:44.829Z,102596.69
2022-12-18T21:59:40.223Z,102586.19
2022-12-18T22:04:33.987Z,102601.03
2022-12-18T22:09:27.637Z,102598.47
2022-12-18T22:14:21.745Z,102602.81
2022-12-18T22:19:15.814Z,102601.19
2022-12-18T22:24:13.801Z,102598.53
2022-12-18T22:29:27.088Z,102603.81
2022-12-18T22:34:23.251Z,102625.13
2022-12-18T22:39:19.216Z,102632.25
2022-12-18T22:44:13.188Z,102631.38
2022-12-18T22:49:13.709Z,102611.31
2022-12-18T22:54:06.829Z,102608.88
2022-12-18T22:59:01.319Z,102607.06
2022-12-18T23:03:54.719Z,102620.03
2022-12-18T23:08:52.975Z,102592.06
2022-12-18T23:13:49.311Z,102574.41
2022-12-18T23:18:42.543Z,102581.53
2022-12-18T23:23:37.196Z,102588.28
2022-12-18T23:28:31.981Z,102583.00
2022-12-18T23:33:25.648Z,102582.13
2022-12-18T23:38:19.942Z,102613.97
2022-12-18T23:43:13.103Z,102604.31
2022-12-18T23:48:06.502Z,102611.38
2022-12-18T23:53:04.848Z,102610.47
2022-12-18T23:57:59.717Z,102593.66
